createdAt,value
2022-11-12T00:00:51.713Z,9.747428
2022-11-12T00:01:51.711Z,9.747323
2022-11-12T00:02:51.660Z,9.747347
2022-11-12T00:03:51.659Z,9.747463
2022-11-12T00:04:51.909Z,9.747351
2022-11-12T00:05:52.667Z,9.747419
2022-11-12T00:06:51.676Z,9.747463
2022-11-12T00:07:51.624Z,9.747375
2022-11-12T00:08:51.616Z,9.747400
2022-11-12T00:09:51.685Z,9.747346
2022-11-12T00:10:51.645Z,9.747210
2022-11-12T00:11:51.596Z,9.747260
2022-11-12T00:12:51.592Z,9.747205
2022-11-12T00:14:24.239Z,9.747254
2022-11-12T00:14:51.587Z,9.747438
2022-11-12T00:15:51.602Z,9.747534
2022-11-12T00:16:51.551Z,9.747335
2022-11-12T00:17:51.545Z,9.747348
2022-11-12T00:18:51.540Z,9.747409
2022-11-12T00:19:51.534Z,9.747249
2022-11-12T00:20:51.555Z,9.747258
2022-11-12T00:21:51.519Z,9.747392
2022-11-12T00:22:51.517Z,9.747426
2022-11-12T00:23:51.505Z,9.747392
2022-11-12T00:24:51.505Z,9.747336
2022-11-12T00:25:51.589Z,9.747282
2022-11-12T00:26:51.484Z,9.747311
2022-11-12T00:27:51.477Z,9.747308
2022-11-12T00:28:51.472Z,9.747307
2022-11-12T00:29:51.465Z,9.747346
2022-11-12T00:30:51.492Z,9.747265
2022-11-12T00:31:51.444Z,9.747315
2022-11-12T00:32:51.443Z,9.747346
2022-11-12T00:33:51.440Z,9.747293
2022-11-12T00:34:51.445Z,9.747316
2022-11-12T00:35:51.413Z,9.747315
2022-11-12T00:36:51.408Z,9.747326
2022-11-12T00:37:51.397Z,9.747372
2022-11-12T00:38:51.401Z,9.747302
2022-11-12T00:39:51.435Z,9.747285
2022-11-12T00:40:51.390Z,9.747302
2022-11-12T00:41:51.442Z,9.747274
2022-11-12T00:42:51.357Z,9.747250
2022-11-12T00:43:51.353Z,9.747229
2022-11-12T00:44:51.387Z,9.747279
2022-11-12T00:45:51.356Z,9.747356
2022-11-12T00:46:51.331Z,9.747272
2022-11-12T00:47:51.344Z,9.747250
2022-11-12T00:48:51.314Z,9.747374
2022-11-12T00:49:51.335Z,9.747285
2022-11-12T00:50:51.301Z,9.747348
2022-11-12T00:51:51.288Z,9.747292
2022-11-12T00:52:51.285Z,9.747273
2022-11-12T00:53:51.286Z,9.747286
2022-11-12T00:54:51.302Z,9.747328
2022-11-12T00:55:51.265Z,9.747248
2022-11-12T00:56:51.255Z,9.747319
2022-11-12T00:57:51.320Z,9.747370
2022-11-12T00:58:51.253Z,9.747284
2022-11-12T00:59:51.263Z,9.747287
2022-11-12T01:00:51.254Z,9.747337
2022-11-12T01:01:51.237Z,9.747359
2022-11-12T01:02:51.641Z,9.747313
2022-11-12T01:03:52.300Z,9.747338
2022-11-12T01:04:51.226Z,9.747296
2022-11-12T01:05:51.196Z,9.747224
2022-11-12T01:06:51.210Z,9.747199
2022-11-12T01:07:55.822Z,9.747288
2022-11-12T01:08:53.171Z,9.747302
2022-11-12T01:09:51.196Z,9.747276
2022-11-12T01:10:51.199Z,9.747327
2022-11-12T01:11:51.143Z,9.747279
2022-11-12T01:12:51.140Z,9.747264
2022-11-12T01:13:51.208Z,9.747339
2022-11-12T01:14:51.160Z,9.747346
2022-11-12T01:15:51.122Z,9.747343
2022-11-12T01:16:51.104Z,9.747351
2022-11-12T01:17:51.103Z,9.747314
2022-11-12T01:18:51.097Z,9.747239
2022-11-12T01:19:51.088Z,9.747303
2022-11-12T01:20:51.101Z,9.747312
2022-11-12T01:21:51.070Z,9.747324
2022-11-12T01:22:51.071Z,9.747275
2022-11-12T01:23:51.058Z,9.747375
2022-11-12T01:24:51.047Z,9.747357
2022-11-12T01:25:51.067Z,9.747312
2022-11-12T01:26:51.045Z,9.747320
2022-11-12T01:27:51.024Z,9.747390
2022-11-12T01:28:51.060Z,9.747397
2022-11-12T01:29:51.088Z,9.747315
2022-11-12T01:30:51.040Z,9.747333
2022-11-12T01:31:50.989Z,9.747380
2022-11-12T01:32:50.981Z,9.747426
2022-11-12T01:33:50.985Z,9.747459
2022-11-12T01:34:51.010Z,9.747343
2022-11-12T01:35:50.962Z,9.747324
2022-11-12T01:36:50.963Z,9.747292
2022-11-12T01:37:50.944Z,9.747335
2022-11-12T01:38:50.939Z,9.747305
2022-11-12T01:39:50.953Z,9.747347
2022-11-12T01:40:50.928Z,9.747284
2022-11-12T01:41:50.916Z,9.747396
2022-11-12T01:42:50.915Z,9.747402
2022-11-12T01:43:50.908Z,9.747370
2022-11-12T01:44:50.968Z,9.747433
2022-11-12T01:45:50.965Z,9.747440
2022-11-12T01:46:50.886Z,9.747426
2022-11-12T01:47:50.881Z,9.747399
2022-11-12T01:48:50.900Z,9.747449
2022-11-12T01:49:55.177Z,9.747359
2022-11-12T01:50:52.853Z,9.747425
2022-11-12T01:51:50.857Z,9.747406
2022-11-12T01:52:50.858Z,9.747406
2022-11-12T01:53:50.824Z,9.747417
2022-11-12T01:54:50.855Z,9.747363
2022-11-12T01:55:50.823Z,9.747349
2022-11-12T01:56:50.799Z,9.747431
2022-11-12T01:57:50.804Z,9.747380
2022-11-12T01:58:50.792Z,9.747339
2022-11-12T01:59:50.863Z,9.747305
2022-11-12T02:00:50.836Z,9.747432
2022-11-12T02:01:50.841Z,9.747252
2022-11-12T02:02:50.756Z,9.747322
2022-11-12T02:03:50.744Z,9.747346
2022-11-12T02:04:50.767Z,9.747252
2022-11-12T02:05:50.734Z,9.747384
2022-11-12T02:06:50.766Z,9.747366
2022-11-12T02:07:50.713Z,9.747417
2022-11-12T02:08:50.705Z,9.747439
2022-11-12T02:09:50.728Z,9.747389
2022-11-12T02:10:50.685Z,9.747348
2022-11-12T02:11:50.703Z,9.747388
2022-11-12T02:12:50.678Z,9.747384
2022-11-12T02:13:50.679Z,9.747299
2022-11-12T02:14:50.686Z,9.747336
2022-11-12T02:15:50.663Z,9.747382
2022-11-12T02:16:50.674Z,9.747391
2022-11-12T02:17:50.721Z,9.747422
2022-11-12T02:18:50.641Z,9.747394
2022-11-12T02:19:50.653Z,9.747247
2022-11-12T02:20:50.621Z,9.747397
2022-11-12T02:21:50.617Z,9.747506
2022-11-12T02:22:50.611Z,9.747542
2022-11-12T02:23:50.602Z,9.747508
2022-11-12T02:24:50.625Z,9.747391
2022-11-12T02:25:50.589Z,9.747296
2022-11-12T02:26:50.626Z,9.747277
2022-11-12T02:27:50.627Z,9.747313
2022-11-12T02:28:50.568Z,9.747394
2022-11-12T02:29:50.583Z,9.747447
2022-11-12T02:30:50.549Z,9.747457
2022-11-12T02:31:50.543Z,9.747102
2022-11-12T02:32:50.534Z,9.747087
2022-11-12T02:33:50.602Z,9.747304
2022-11-12T02:34:50.549Z,9.747497
2022-11-12T02:35:50.567Z,9.747445
2022-11-12T02:36:50.507Z,9.747483
2022-11-12T02:37:50.495Z,9.747388
2022-11-12T02:38:51.491Z,9.747454
2022-11-12T02:39:50.516Z,9.747381
2022-11-12T02:40:50.477Z,9.747431
2022-11-12T02:41:50.464Z,9.747355
2022-11-12T02:42:50.454Z,9.747368
2022-11-12T02:43:50.446Z,9.747362
2022-11-12T02:44:50.470Z,9.747323
2022-11-12T02:45:50.478Z,9.747291
2022-11-12T02:46:50.427Z,9.747365
2022-11-12T02:47:50.424Z,9.747391
2022-11-12T02:48:50.416Z,9.747369
2022-11-12T02:49:50.509Z,9.747345
2022-11-12T02:50:50.404Z,9.747298
2022-11-12T02:51:50.401Z,9.747341
2022-11-12T02:52:50.385Z,9.747321
2022-11-12T02:53:50.375Z,9.747325
2022-11-12T02:54:50.397Z,9.747373
2022-11-12T02:55:50.366Z,9.747312
2022-11-12T02:56:50.357Z,9.747296
2022-11-12T02:57:50.350Z,9.747364
2022-11-12T02:58:50.351Z,9.747375
2022-11-12T02:59:50.379Z,9.747413
2022-11-12T03:00:50.388Z,9.747351
2022-11-12T03:01:50.321Z,9.747295
2022-11-12T03:02:50.305Z,9.747351
2022-11-12T03:03:50.296Z,9.747394
2022-11-12T03:04:50.328Z,9.747388
2022-11-12T03:05:50.370Z,9.747322
2022-11-12T03:06:50.318Z,9.747379
2022-11-12T03:07:50.272Z,9.747369
2022-11-12T03:08:50.273Z,9.747390
2022-11-12T03:09:50.284Z,9.747396
2022-11-12T03:10:50.256Z,9.747493
2022-11-12T03:11:50.236Z,9.747469
2022-11-12T03:12:50.232Z,9.747436
2022-11-12T03:13:50.223Z,9.747289
2022-11-12T03:14:50.213Z,9.747435
2022-11-12T03:15:50.228Z,9.747496
2022-11-12T03:16:50.195Z,9.747441
2022-11-12T03:17:50.186Z,9.747291
2022-11-12T03:18:50.179Z,9.747221
2022-11-12T03:19:50.177Z,9.747400
2022-11-12T03:20:50.195Z,9.747216
2022-11-12T03:21:50.229Z,9.747375
2022-11-12T03:22:50.156Z,9.747365
2022-11-12T03:23:50.147Z,9.747368
2022-11-12T03:24:50.173Z,9.747345
2022-11-12T03:25:50.131Z,9.747475
2022-11-12T03:26:50.121Z,9.747323
2022-11-12T03:27:50.110Z,9.747212
2022-11-12T03:28:50.104Z,9.747280
2022-11-12T03:29:50.142Z,9.747441
2022-11-12T03:30:50.088Z,9.747536
2022-11-12T03:31:50.088Z,9.747463
2022-11-12T03:32:50.078Z,9.747355
2022-11-12T03:33:50.075Z,9.747371
2022-11-12T03:34:55.157Z,9.747384
2022-11-12T03:35:52.075Z,9.747509
2022-11-12T03:36:50.095Z,9.747443
2022-11-12T03:37:50.110Z,9.747412
2022-11-12T03:38:50.029Z,9.747279
2022-11-12T03:39:50.017Z,9.747408
2022-11-12T03:40:50.045Z,9.747302
2022-11-12T03:41:50.008Z,9.747355
2022-11-12T03:42:50.000Z,9.747278
2022-11-12T03:43:50.009Z,9.747152
2022-11-12T03:44:49.988Z,9.747222
2022-11-12T03:45:50.000Z,9.747239
2022-11-12T03:46:49.966Z,9.747190
2022-11-12T03:47:49.965Z,9.747257
2022-11-12T03:48:49.946Z,9.747269
2022-11-12T03:49:49.944Z,9.747316
2022-11-12T03:50:49.964Z,9.747356
2022-11-12T03:51:49.932Z,9.747359
2022-11-12T03:52:49.923Z,9.747303
2022-11-12T03:53:49.991Z,9.747375
2022-11-12T03:54:49.940Z,9.747366
2022-11-12T03:55:49.897Z,9.747406
2022-11-12T03:56:49.895Z,9.747509
2022-11-12T03:57:49.889Z,9.747366
2022-11-12T03:58:49.880Z,9.747496
2022-11-12T03:59:49.907Z,9.747353
2022-11-12T04:00:49.911Z,9.747315
2022-11-12T04:01:49.856Z,9.747417
2022-11-12T04:02:49.847Z,9.747456
2022-11-12T04:03:49.842Z,9.747415
2022-11-12T04:04:49.836Z,9.747374
2022-11-12T04:05:49.859Z,9.747320
2022-11-12T04:06:49.874Z,9.747342
2022-11-12T04:07:49.808Z,9.747407
2022-11-12T04:08:49.810Z,9.747441
2022-11-12T04:09:49.888Z,9.747399
2022-11-12T04:10:49.817Z,9.747514
2022-11-12T04:11:49.784Z,9.747575
2022-11-12T04:12:49.774Z,9.747472
2022-11-12T04:13:49.774Z,9.747455
2022-11-12T04:14:49.762Z,9.747404
2022-11-12T04:15:49.778Z,9.747503
2022-11-12T04:16:49.752Z,9.747509
2022-11-12T04:17:49.741Z,9.747535
2022-11-12T04:18:49.734Z,9.747462
2022-11-12T04:19:49.718Z,9.747486
2022-11-12T04:20:49.738Z,9.747541
2022-11-12T04:21:49.733Z,9.747439
2022-11-12T04:22:49.709Z,9.747456
2022-11-12T04:23:49.703Z,9.747382
2022-11-12T04:24:49.679Z,9.747497
2022-11-12T04:25:49.780Z,9.747449
2022-11-12T04:26:49.675Z,9.747495
2022-11-12T04:27:49.669Z,9.747530
2022-11-12T04:28:49.664Z,9.747670
2022-11-12T04:29:49.642Z,9.747595
2022-11-12T04:30:49.664Z,9.747441
2022-11-12T04:31:49.653Z,9.747534
2022-11-12T04:32:49.631Z,9.747497
2022-11-12T04:33:49.619Z,9.747425
2022-11-12T04:34:49.713Z,9.747422
2022-11-12T04:35:49.945Z,9.747488
2022-11-12T04:36:49.598Z,9.747417
2022-11-12T04:37:49.592Z,9.747424
2022-11-12T04:38:49.587Z,9.747357
2022-11-12T04:39:49.573Z,9.747444
2022-11-12T04:40:49.595Z,9.747375
2022-11-12T04:41:49.632Z,9.747423
2022-11-12T04:42:49.547Z,9.747427
2022-11-12T04:43:49.545Z,9.747431
2022-11-12T04:44:49.544Z,9.747520
2022-11-12T04:45:49.556Z,9.747495
2022-11-12T04:46:49.521Z,9.747643
2022-11-12T04:47:49.510Z,9.747597
2022-11-12T04:48:49.523Z,9.747876
2022-11-12T04:49:49.495Z,9.747684
2022-11-12T04:50:49.517Z,9.747587
2022-11-12T04:51:49.482Z,9.747473
2022-11-12T04:52:49.476Z,9.747663
2022-11-12T04:53:49.461Z,9.747677
2022-11-12T04:54:49.458Z,9.747415
2022-11-12T04:55:49.477Z,9.747376
2022-11-12T04:56:49.441Z,9.747477
2022-11-12T04:57:49.510Z,9.747339
2022-11-12T04:58:49.430Z,9.747366
2022-11-12T04:59:49.424Z,9.747203
2022-11-12T05:00:49.494Z,9.747132
2022-11-12T05:01:49.399Z,9.747194
2022-11-12T05:02:50.401Z,9.747227
2022-11-12T05:03:49.392Z,9.747051
2022-11-12T05:04:49.383Z,9.746757
2022-11-12T05:05:49.410Z,9.747113
2022-11-12T05:06:49.388Z,9.747297
2022-11-12T05:07:49.352Z,9.747403
2022-11-12T05:08:49.357Z,9.747368
2022-11-12T05:09:49.333Z,9.747128
2022-11-12T05:10:49.364Z,9.747152
2022-11-12T05:11:49.323Z,9.747010
2022-11-12T05:12:49.323Z,9.747376
2022-11-12T05:13:49.381Z,9.747263
2022-11-12T05:14:49.349Z,9.747235
2022-11-12T05:15:49.326Z,9.747455
2022-11-12T05:16:49.286Z,9.747406
2022-11-12T05:17:49.279Z,9.747317
2022-11-12T05:18:49.280Z,9.747082
2022-11-12T05:19:49.263Z,9.747110
2022-11-12T05:20:49.290Z,9.747054
2022-11-12T05:21:49.249Z,9.747146
2022-11-12T05:23:04.902Z,9.747074
2022-11-12T05:23:51.232Z,9.746942
2022-11-12T05:24:49.256Z,9.747130
2022-11-12T05:25:49.244Z,9.747055
2022-11-12T05:26:49.219Z,9.747036
2022-11-12T05:27:49.213Z,9.747361
2022-11-12T05:28:49.192Z,9.747292
2022-11-12T05:29:49.265Z,9.747128
2022-11-12T05:30:49.209Z,9.747205
2022-11-12T05:31:49.173Z,9.747451
2022-11-12T05:32:49.163Z,9.747371
2022-11-12T05:33:49.163Z,9.747308
2022-11-12T05:34:49.147Z,9.747234
2022-11-12T05:35:49.174Z,9.747039
2022-11-12T05:36:49.137Z,9.746956
2022-11-12T05:37:49.130Z,9.746888
2022-11-12T05:38:49.116Z,9.746726
2022-11-12T05:39:49.105Z,9.746868
2022-11-12T05:40:49.103Z,9.746800
2022-11-12T05:42:11.392Z,9.747009
2022-11-12T05:42:51.090Z,9.747160
2022-11-12T05:43:49.081Z,9.747197
2022-11-12T05:44:49.063Z,9.747240
2022-11-12T05:45:49.128Z,9.747209
2022-11-12T05:46:49.091Z,9.747186
2022-11-12T05:47:49.051Z,9.747260
2022-11-12T05:48:49.040Z,9.747265
2022-11-12T05:49:49.030Z,9.747338
2022-11-12T05:51:11.463Z,9.747309
2022-11-12T05:51:51.049Z,9.747289
2022-11-12T05:52:49.010Z,9.747330
2022-11-12T05:53:48.999Z,9.747368
2022-11-12T05:54:48.997Z,9.747343
2022-11-12T05:55:48.986Z,9.747318
2022-11-12T05:56:49.016Z,9.747333
2022-11-12T05:57:48.972Z,9.747334
2022-11-12T05:58:48.965Z,9.747227
2022-11-12T05:59:48.991Z,9.747330
2022-11-12T06:00:48.954Z,9.747338
2022-11-12T06:01:49.042Z,9.747408
2022-11-12T06:02:48.975Z,9.747326
2022-11-12T06:03:49.014Z,9.747315
2022-11-12T06:04:48.914Z,9.747336
2022-11-12T06:05:48.917Z,9.747318
2022-11-12T06:06:48.979Z,9.747243
2022-11-12T06:07:48.895Z,9.747281
2022-11-12T06:08:48.888Z,9.747354
2022-11-12T06:09:48.875Z,9.747314
2022-11-12T06:10:48.869Z,9.747305
2022-11-12T06:11:48.883Z,9.747370
2022-11-12T06:12:48.857Z,9.747359
2022-11-12T06:14:21.329Z,9.747390
2022-11-12T06:14:48.853Z,9.747167
2022-11-12T06:15:48.830Z,9.747233
2022-11-12T06:16:48.847Z,9.747318
2022-11-12T06:17:48.891Z,9.747345
2022-11-12T06:18:48.817Z,9.747396
2022-11-12T06:19:48.807Z,9.747384
2022-11-12T06:20:48.793Z,9.747286
2022-11-12T06:21:48.819Z,9.747326
2022-11-12T06:22:48.773Z,9.747305
2022-11-12T06:23:48.768Z,9.747333
2022-11-12T06:24:48.760Z,9.747352
2022-11-12T06:25:48.758Z,9.747328
2022-11-12T06:26:48.774Z,9.747411
2022-11-12T06:27:48.797Z,9.747306
2022-11-12T06:28:48.859Z,9.747301
2022-11-12T06:29:48.725Z,9.747300
2022-11-12T06:30:48.718Z,9.747287
2022-11-12T06:31:48.742Z,9.747298
2022-11-12T06:32:48.695Z,9.746711
2022-11-12T06:33:48.764Z,9.747105
2022-11-12T06:34:48.687Z,9.747057
2022-11-12T06:35:48.677Z,9.747178
2022-11-12T06:36:48.706Z,9.747196
2022-11-12T06:37:48.671Z,9.747186
2022-11-12T06:38:48.655Z,9.747293
2022-11-12T06:39:48.648Z,9.747346
2022-11-12T06:40:48.652Z,9.747260
2022-11-12T06:41:48.668Z,9.747331
2022-11-12T06:42:48.623Z,9.747337
2022-11-12T06:43:48.618Z,9.747281
2022-11-12T06:44:48.618Z,9.747303
2022-11-12T06:45:48.614Z,9.747325
2022-11-12T06:46:48.630Z,9.747343
2022-11-12T06:47:48.595Z,9.747227
2022-11-12T06:48:48.588Z,9.747286
2022-11-12T06:49:48.643Z,9.747328
2022-11-12T06:50:48.575Z,9.747351
2022-11-12T06:51:48.566Z,9.747334
2022-11-12T06:52:48.581Z,9.747531
2022-11-12T06:53:48.544Z,9.747471
2022-11-12T06:54:48.544Z,9.747366
2022-11-12T06:55:48.528Z,9.747429
2022-11-12T06:56:48.522Z,9.747465
2022-11-12T06:57:48.549Z,9.747357
2022-11-12T06:58:48.506Z,9.747383
2022-11-12T06:59:48.518Z,9.747368
2022-11-12T07:00:49.494Z,9.747332
2022-11-12T07:01:48.495Z,9.747425
2022-11-12T07:02:48.512Z,9.747459
2022-11-12T07:03:48.468Z,9.747399
2022-11-12T07:04:48.472Z,9.747383
2022-11-12T07:05:48.524Z,9.747375
2022-11-12T07:06:48.513Z,9.747453
2022-11-12T07:07:48.469Z,9.747432
2022-11-12T07:08:48.439Z,9.747431
2022-11-12T07:09:48.438Z,9.747432
2022-11-12T07:10:48.414Z,9.747450
2022-11-12T07:11:48.417Z,9.747492
2022-11-12T07:12:53.183Z,9.747477
2022-11-12T07:13:50.397Z,9.747400
2022-11-12T07:14:48.384Z,9.747561
2022-11-12T07:15:48.387Z,9.747426
2022-11-12T07:16:48.374Z,9.747431
2022-11-12T07:17:48.392Z,9.747393
2022-11-12T07:18:48.365Z,9.747408
2022-11-12T07:19:48.351Z,9.747568
2022-11-12T07:20:48.342Z,9.747493
2022-11-12T07:21:48.412Z,9.747435
2022-11-12T07:22:48.380Z,9.747562
2022-11-12T07:23:48.328Z,9.747418
2022-11-12T07:24:48.312Z,9.747375
2022-11-12T07:25:48.297Z,9.747633
2022-11-12T07:26:48.298Z,9.747472
2022-11-12T07:27:48.315Z,9.747338
2022-11-12T07:28:48.279Z,9.747296
2022-11-12T07:29:48.965Z,9.747529
2022-11-12T07:30:49.271Z,9.747441
2022-11-12T07:31:48.263Z,9.747425
2022-11-12T07:32:51.782Z,9.747355
2022-11-12T07:33:49.257Z,9.747435
2022-11-12T07:34:48.274Z,9.747484
2022-11-12T07:35:48.230Z,9.747371
2022-11-12T07:36:48.219Z,9.747404
2022-11-12T07:37:48.320Z,9.747369
2022-11-12T07:38:48.213Z,9.747426
2022-11-12T07:39:48.202Z,9.747335
2022-11-12T07:40:48.189Z,9.747379
2022-11-12T07:41:48.194Z,9.747500
2022-11-12T07:42:48.204Z,9.747580
2022-11-12T07:43:48.177Z,9.747506
2022-11-12T07:44:48.172Z,9.747330
2022-11-12T07:45:48.155Z,9.747326
2022-11-12T07:46:48.147Z,9.747408
2022-11-12T07:47:48.170Z,9.747390
2022-11-12T07:48:48.123Z,9.747267
2022-11-12T07:49:49.127Z,9.747409
2022-11-12T07:50:48.114Z,9.747377
2022-11-12T07:51:48.114Z,9.747429
2022-11-12T07:52:48.098Z,9.747453
2022-11-12T07:53:48.202Z,9.747427
2022-11-12T07:54:48.087Z,9.747503
2022-11-12T07:55:48.077Z,9.747478
2022-11-12T07:56:48.086Z,9.747306
2022-11-12T07:57:48.066Z,9.747395
2022-11-12T07:58:48.100Z,9.747538
2022-11-12T07:59:48.051Z,9.747484
2022-11-12T08:00:48.063Z,9.747375
2022-11-12T08:01:48.174Z,9.747305
2022-11-12T08:02:48.030Z,9.747281
2022-11-12T08:03:48.050Z,9.747358
2022-11-12T08:04:48.017Z,9.747331
2022-11-12T08:05:48.019Z,9.747432
2022-11-12T08:06:48.092Z,9.747338
2022-11-12T08:07:48.081Z,9.746955
2022-11-12T08:08:48.014Z,9.746895
2022-11-12T08:09:48.052Z,9.747419
2022-11-12T08:10:47.981Z,9.747387
2022-11-12T08:11:47.973Z,9.747437
2022-11-12T08:12:47.957Z,9.747158
2022-11-12T08:13:47.981Z,9.747362
2022-11-12T08:14:47.951Z,9.747558
2022-11-12T08:15:52.086Z,9.747592
2022-11-12T08:16:48.935Z,9.747392
2022-11-12T08:17:47.929Z,9.747437
2022-11-12T08:18:47.970Z,9.747474
2022-11-12T08:19:47.913Z,9.747341
2022-11-12T08:20:47.906Z,9.747272
2022-11-12T08:21:47.889Z,9.747461
2022-11-12T08:22:49.350Z,9.747443
2022-11-12T08:23:48.902Z,9.747429
2022-11-12T08:24:47.883Z,9.747373
2022-11-12T08:25:47.934Z,9.747480
2022-11-12T08:26:47.851Z,9.747545
2022-11-12T08:27:47.842Z,9.747372
2022-11-12T08:28:47.878Z,9.747324
2022-11-12T08:29:47.886Z,9.747418
2022-11-12T08:30:47.824Z,9.747570
2022-11-12T08:31:47.807Z,9.747522
2022-11-12T08:32:47.805Z,9.747565
2022-11-12T08:33:47.824Z,9.747403
2022-11-12T08:34:47.790Z,9.747568
2022-11-12T08:35:48.792Z,9.747554
2022-11-12T08:36:47.785Z,9.747486
2022-11-12T08:37:47.776Z,9.747396
2022-11-12T08:38:47.798Z,9.747477
2022-11-12T08:39:47.779Z,9.747397
2022-11-12T08:40:47.749Z,9.747467
2022-11-12T08:41:47.808Z,9.747496
2022-11-12T08:42:47.727Z,9.747358
2022-11-12T08:43:47.762Z,9.747458
2022-11-12T08:44:47.748Z,9.747457
2022-11-12T08:45:47.747Z,9.747482
2022-11-12T08:46:47.750Z,9.747425
2022-11-12T08:47:47.692Z,9.747498
2022-11-12T08:48:47.722Z,9.747403
2022-11-12T08:49:48.327Z,9.747410
2022-11-12T08:50:48.679Z,9.747440
2022-11-12T08:51:47.702Z,9.747395
2022-11-12T08:52:47.723Z,9.747335
2022-11-12T08:53:47.690Z,9.747352
2022-11-12T08:54:47.685Z,9.747494
2022-11-12T08:55:47.634Z,9.747509
2022-11-12T08:56:47.653Z,9.747543
2022-11-12T08:57:47.704Z,9.747578
2022-11-12T08:58:47.632Z,9.747472
2022-11-12T08:59:47.657Z,9.747490
2022-11-12T09:00:47.634Z,9.747550
2022-11-12T09:01:47.622Z,9.747392
2022-11-12T09:02:47.621Z,9.747335
2022-11-12T09:03:47.593Z,9.747443
2022-11-12T09:04:48.588Z,9.747426
2022-11-12T09:05:47.554Z,9.747420
2022-11-12T09:06:52.658Z,9.747435
2022-11-12T09:07:51.055Z,9.747426
2022-11-12T09:08:48.533Z,9.747448
2022-11-12T09:09:47.562Z,9.747480
2022-11-12T09:10:47.521Z,9.747394
2022-11-12T09:11:47.544Z,9.747464
2022-11-12T09:12:47.504Z,9.747387
2022-11-12T09:13:47.668Z,9.747416
2022-11-12T09:14:47.516Z,9.747469
2022-11-12T09:15:47.483Z,9.747369
2022-11-12T09:16:47.474Z,9.747484
2022-11-12T09:17:47.457Z,9.747484
2022-11-12T09:18:47.450Z,9.747397
2022-11-12T09:19:47.467Z,9.747410
2022-11-12T09:20:47.435Z,9.747491
2022-11-12T09:21:47.427Z,9.747476
2022-11-12T09:22:47.420Z,9.747507
2022-11-12T09:23:47.411Z,9.747519
2022-11-12T09:24:47.436Z,9.747523
2022-11-12T09:25:47.399Z,9.747531
2022-11-12T09:26:47.413Z,9.747458
2022-11-12T09:27:48.702Z,9.747291
2022-11-12T09:28:48.379Z,9.747366
2022-11-12T09:29:47.469Z,9.747525
2022-11-12T09:30:47.374Z,9.747581
2022-11-12T09:31:47.387Z,9.747394
2022-11-12T09:32:47.344Z,9.747374
2022-11-12T09:33:47.352Z,9.747283
2022-11-12T09:34:47.360Z,9.747431
2022-11-12T09:35:47.329Z,9.747461
2022-11-12T09:36:47.317Z,9.747283
2022-11-12T09:37:47.322Z,9.747386
2022-11-12T09:38:47.302Z,9.747326
2022-11-12T09:39:47.330Z,9.747413
2022-11-12T09:40:47.290Z,9.747415
2022-11-12T09:41:47.290Z,9.747416
2022-11-12T09:42:47.270Z,9.747342
2022-11-12T09:43:47.270Z,9.747364
2022-11-12T09:44:47.287Z,9.747336
2022-11-12T09:46:06.446Z,9.747465
2022-11-12T09:46:49.236Z,9.747484
2022-11-12T09:47:47.236Z,9.747406
2022-11-12T09:48:47.234Z,9.747376
2022-11-12T09:49:47.253Z,9.747437
2022-11-12T09:50:47.207Z,9.747344
2022-11-12T09:51:47.218Z,9.747383
2022-11-12T09:52:47.201Z,9.747483
2022-11-12T09:53:47.182Z,9.747433
2022-11-12T09:54:47.206Z,9.747348
2022-11-12T09:55:47.171Z,9.747348
2022-11-12T09:56:47.175Z,9.747467
2022-11-12T09:57:47.163Z,9.747435
2022-11-12T09:58:47.163Z,9.747410
2022-11-12T09:59:47.162Z,9.747395
2022-11-12T10:00:47.139Z,9.747432
2022-11-12T10:01:47.339Z,9.747400
2022-11-12T10:02:47.118Z,9.747394
2022-11-12T10:03:47.108Z,9.747338
2022-11-12T10:04:47.124Z,9.747479
2022-11-12T10:05:47.114Z,9.747478
2022-11-12T10:06:47.151Z,9.747543
2022-11-12T10:07:47.077Z,9.747386
2022-11-12T10:08:48.071Z,9.747420
2022-11-12T10:09:47.086Z,9.747439
2022-11-12T10:10:47.054Z,9.747488
2022-11-12T10:11:47.064Z,9.747446
2022-11-12T10:12:47.046Z,9.747415
2022-11-12T10:13:47.028Z,9.747408
2022-11-12T10:14:47.061Z,9.747383
2022-11-12T10:15:47.017Z,9.747364
2022-11-12T10:16:47.007Z,9.747401
2022-11-12T10:17:47.075Z,9.747437
2022-11-12T10:18:46.994Z,9.747414
2022-11-12T10:19:47.024Z,9.747497
2022-11-12T10:20:46.976Z,9.747387
2022-11-12T10:21:47.059Z,9.747347
2022-11-12T10:22:46.961Z,9.747373
2022-11-12T10:23:46.997Z,9.747344
2022-11-12T10:24:46.979Z,9.747356
2022-11-12T10:25:46.941Z,9.747419
2022-11-12T10:26:46.942Z,9.747438
2022-11-12T10:27:46.919Z,9.747334
2022-11-12T10:28:46.916Z,9.747475
2022-11-12T10:29:46.938Z,9.747393
2022-11-12T10:30:46.916Z,9.747307
2022-11-12T10:31:46.897Z,9.747332
2022-11-12T10:32:46.889Z,9.747278
2022-11-12T10:33:46.996Z,9.747255
2022-11-12T10:34:46.887Z,9.747363
2022-11-12T10:35:46.885Z,9.747398
2022-11-12T10:36:46.861Z,9.747382
2022-11-12T10:37:46.857Z,9.747387
2022-11-12T10:38:46.873Z,9.747388
2022-11-12T10:39:46.885Z,9.747385
2022-11-12T10:40:46.834Z,9.747408
2022-11-12T10:41:46.832Z,9.747340
2022-11-12T10:42:46.799Z,9.747259
2022-11-12T10:43:47.842Z,9.747232
2022-11-12T10:44:46.846Z,9.747355
2022-11-12T10:45:46.829Z,9.747280
2022-11-12T10:46:46.783Z,9.747302
2022-11-12T10:47:46.779Z,9.747208
2022-11-12T10:48:46.809Z,9.747231
2022-11-12T10:49:46.831Z,9.747397
2022-11-12T10:50:46.763Z,9.747410
2022-11-12T10:51:46.746Z,9.747234
2022-11-12T10:52:46.754Z,9.747193
2022-11-12T10:53:46.735Z,9.747119
2022-11-12T10:54:50.952Z,9.747285
2022-11-12T10:55:48.728Z,9.747307
2022-11-12T10:56:46.718Z,9.747244
2022-11-12T10:57:46.715Z,9.747369
2022-11-12T10:58:46.692Z,9.747400
2022-11-12T10:59:46.717Z,9.747388
2022-11-12T11:00:46.680Z,9.747317
2022-11-12T11:01:46.769Z,9.747282
2022-11-12T11:02:46.660Z,9.747328
2022-11-12T11:03:46.688Z,9.747359
2022-11-12T11:04:46.693Z,9.747256
2022-11-12T11:05:46.730Z,9.747117
2022-11-12T11:06:46.659Z,9.747406
2022-11-12T11:07:46.626Z,9.747343
2022-11-12T11:08:46.674Z,9.747544
2022-11-12T11:09:46.694Z,9.747463
2022-11-12T11:10:46.601Z,9.747356
2022-11-12T11:11:46.597Z,9.747148
2022-11-12T11:12:46.591Z,9.747437
2022-11-12T11:13:47.550Z,9.747475
2022-11-12T11:14:46.605Z,9.747429
2022-11-12T11:15:46.567Z,9.747523
2022-11-12T11:16:46.583Z,9.747450
2022-11-12T11:17:46.550Z,9.747450
2022-11-12T11:18:46.556Z,9.747467
2022-11-12T11:19:47.040Z,9.747328
2022-11-12T11:20:46.548Z,9.747356
2022-11-12T11:21:46.595Z,9.747341
2022-11-12T11:22:46.509Z,9.747427
2022-11-12T11:23:46.499Z,9.747465
2022-11-12T11:24:46.519Z,9.747416
2022-11-12T11:25:46.485Z,9.747556
2022-11-12T11:26:46.475Z,9.747386
2022-11-12T11:27:46.466Z,9.747251
2022-11-12T11:28:46.458Z,9.747316
2022-11-12T11:29:46.477Z,9.747424
2022-11-12T11:30:46.469Z,9.747452
2022-11-12T11:31:46.432Z,9.747333
2022-11-12T11:32:46.427Z,9.747392
2022-11-12T11:33:46.419Z,9.747492
2022-11-12T11:34:46.431Z,9.747230
2022-11-12T11:35:46.406Z,9.747256
2022-11-12T11:36:46.396Z,9.747272
2022-11-12T11:37:46.465Z,9.747431
2022-11-12T11:38:46.377Z,9.747330
2022-11-12T11:39:46.406Z,9.747425
2022-11-12T11:40:46.362Z,9.747405
2022-11-12T11:41:46.352Z,9.747388
2022-11-12T11:42:46.401Z,9.747405
2022-11-12T11:43:46.411Z,9.747396
2022-11-12T11:44:46.355Z,9.747361